createdAt,value
2018-09-04T00:00:35.161Z,22.90
2018-09-04T00:01:35.244Z,22.50
2018-09-04T00:02:35.173Z,25.60
2018-09-04T00:03:35.167Z,25.60
2018-09-04T00:04:35.119Z,26.40
2018-09-04T00:05:35.103Z,25.90
2018-09-04T00:06:35.204Z,24.20
2018-09-04T00:07:38.117Z,22.90
2018-09-04T00:08:35.139Z,26.80
2018-09-04T00:10:49.684Z,21.90
2018-09-04T00:11:49.712Z,25.60
2018-09-04T00:12:52.740Z,25.60
2018-09-04T00:13:49.524Z,25.00
2018-09-04T00:14:49.561Z,23.50
2018-09-04T00:15:49.508Z,24.00
2018-09-04T00:16:49.466Z,24.50
2018-09-04T00:17:49.472Z,24.40
2018-09-04T00:18:49.461Z,25.20
2018-09-04T00:19:49.505Z,23.90
2018-09-04T00:20:52.532Z,26.40
2018-09-04T00:21:49.525Z,23.40
2018-09-04T00:22:49.453Z,26.50
2018-09-04T00:23:49.419Z,26.70
2018-09-04T00:24:49.409Z,25.70
2018-09-04T00:25:49.394Z,27.50
2018-09-04T00:26:49.476Z,29.40
2018-09-04T00:27:49.400Z,26.50
2018-09-04T00:28:49.399Z,28.20
2018-09-04T00:29:49.328Z,26.80
2018-09-04T00:30:49.376Z,28.20
2018-09-04T00:31:49.341Z,27.90
2018-09-04T00:32:49.400Z,28.70
2018-09-04T00:33:49.411Z,25.60
2018-09-04T00:34:49.363Z,28.10
2018-09-04T00:35:49.328Z,28.60
2018-09-04T00:36:49.287Z,26.80
2018-09-04T00:37:49.307Z,28.30
2018-09-04T00:38:49.293Z,27.40
2018-09-04T00:39:49.220Z,25.30
2018-09-04T00:40:49.284Z,23.30
2018-09-04T00:41:49.279Z,26.20
2018-09-04T00:42:49.221Z,25.00
2018-09-04T00:43:49.224Z,28.70
2018-09-04T00:44:49.224Z,25.70
2018-09-04T00:45:49.185Z,28.10
2018-09-04T00:46:49.217Z,26.50
2018-09-04T00:47:53.894Z,26.70
2018-09-04T00:48:49.196Z,28.70
2018-09-04T00:49:49.126Z,25.80
2018-09-04T00:50:49.203Z,25.10
2018-09-04T00:51:49.144Z,27.50
2018-09-04T00:52:49.200Z,25.60
2018-09-04T00:53:49.094Z,23.90
2018-09-04T00:54:49.086Z,26.60
2018-09-04T00:55:49.152Z,22.50
2018-09-04T00:56:49.092Z,25.00
2018-09-04T00:57:49.048Z,25.40
2018-09-04T00:58:49.084Z,24.60
2018-09-04T00:59:49.024Z,26.00
2018-09-04T01:00:49.085Z,28.20
2018-09-04T01:01:49.092Z,23.90
2018-09-04T01:02:49.099Z,24.90
2018-09-04T01:03:48.996Z,25.10
2018-09-04T01:04:49.018Z,28.80
2018-09-04T01:05:48.979Z,29.80
2018-09-04T01:06:48.935Z,32.80
2018-09-04T01:07:49.003Z,30.60
2018-09-04T01:08:48.951Z,28.80
2018-09-04T01:09:48.928Z,28.10
2018-09-04T01:10:48.855Z,26.40
2018-09-04T01:11:48.911Z,27.60
2018-09-04T01:12:48.829Z,26.20
2018-09-04T01:13:48.912Z,28.40
2018-09-04T01:14:48.929Z,27.80
2018-09-04T01:15:48.921Z,26.10
2018-09-04T01:16:48.894Z,28.70
2018-09-04T01:17:48.822Z,25.50
2018-09-04T01:18:48.820Z,25.80
2018-09-04T01:19:48.893Z,27.60
2018-09-04T01:20:48.831Z,29.30
2018-09-04T01:21:48.764Z,27.40
2018-09-04T01:22:48.859Z,25.00
2018-09-04T01:23:48.792Z,27.50
2018-09-04T01:24:51.732Z,30.40
2018-09-04T01:25:48.816Z,29.30
2018-09-04T01:26:48.787Z,27.90
2018-09-04T01:27:48.764Z,29.60
2018-09-04T01:28:48.735Z,28.90
2018-09-04T01:29:48.676Z,28.50
2018-09-04T01:30:48.726Z,27.00
2018-09-04T01:31:48.729Z,28.60
2018-09-04T01:32:51.668Z,29.30
2018-09-04T01:33:48.628Z,27.70
2018-09-04T01:34:48.643Z,29.50
2018-09-04T01:35:48.634Z,28.70
2018-09-04T01:36:48.625Z,27.80
2018-09-04T01:38:57.872Z,22.10
2018-09-04T01:39:57.591Z,26.20
2018-09-04T01:42:07.050Z,20.00
2018-09-04T01:43:07.055Z,25.10
2018-09-04T01:44:06.948Z,31.60
2018-09-04T01:45:06.864Z,26.80
2018-09-04T01:46:06.839Z,30.20
2018-09-04T01:47:09.825Z,29.50
2018-09-04T01:48:06.889Z,27.80
2018-09-04T01:49:11.541Z,31.10
2018-09-04T01:50:06.774Z,30.40
2018-09-04T01:51:06.791Z,34.60
2018-09-04T01:52:06.797Z,31.90
2018-09-04T01:53:09.752Z,32.70
2018-09-04T01:54:07.000Z,31.00
2018-09-04T01:55:06.699Z,33.30
2018-09-04T01:56:06.800Z,32.30
2018-09-04T01:57:06.743Z,33.70
2018-09-04T01:58:06.719Z,35.60
2018-09-04T01:59:06.720Z,35.00
2018-09-04T02:00:06.737Z,34.70
2018-09-04T02:01:06.683Z,29.50
2018-09-04T02:02:06.656Z,32.90
2018-09-04T02:03:06.637Z,30.30
2018-09-04T02:04:06.669Z,31.20
2018-09-04T02:05:06.661Z,34.70
2018-09-04T02:06:06.672Z,33.40
2018-09-04T02:07:06.639Z,33.90
2018-09-04T02:08:06.664Z,30.40
2018-09-04T02:09:06.591Z,35.10
2018-09-04T02:10:06.604Z,35.70
2018-09-04T02:11:06.618Z,33.70
2018-09-04T02:12:06.623Z,31.20
2018-09-04T02:13:06.633Z,29.90
2018-09-04T02:14:06.553Z,31.10
2018-09-04T02:15:06.513Z,34.40
2018-09-04T02:16:06.528Z,32.60
2018-09-04T02:17:06.469Z,32.90
2018-09-04T02:18:06.569Z,32.20
2018-09-04T02:19:06.539Z,27.90
2018-09-04T02:20:06.492Z,33.30
2018-09-04T02:21:06.441Z,32.70
2018-09-04T02:22:06.432Z,29.10
2018-09-04T02:23:06.447Z,31.70
2018-09-04T02:24:06.441Z,32.50
2018-09-04T02:25:06.420Z,31.10
2018-09-04T02:26:06.466Z,34.10
2018-09-04T02:27:06.450Z,35.40
2018-09-04T02:28:06.371Z,35.30
2018-09-04T02:29:06.419Z,33.40
2018-09-04T02:30:06.398Z,34.00
2018-09-04T02:31:06.368Z,30.40
2018-09-04T02:32:06.347Z,33.70
2018-09-04T02:33:06.451Z,30.10
2018-09-04T02:34:06.347Z,30.90
2018-09-04T02:35:06.315Z,32.50
2018-09-04T02:36:06.360Z,32.30
2018-09-04T02:37:06.318Z,31.70
2018-09-04T02:38:06.275Z,33.70
2018-09-04T02:39:09.335Z,33.80
2018-09-04T02:40:06.320Z,33.50
2018-09-04T02:41:06.255Z,30.10
2018-09-04T02:43:16.447Z,27.90
2018-09-04T02:44:15.910Z,32.20
2018-09-04T02:45:15.873Z,30.10
2018-09-04T02:46:15.909Z,28.90
2018-09-04T02:47:15.928Z,29.20
2018-09-04T02:48:15.885Z,30.10
2018-09-04T02:49:15.848Z,29.40
2018-09-04T02:50:20.557Z,31.20
2018-09-04T02:52:25.386Z,23.70
2018-09-04T02:53:25.306Z,30.80
2018-09-04T02:54:25.215Z,32.40
2018-09-04T02:55:25.240Z,31.00
2018-09-04T02:56:25.117Z,34.00
2018-09-04T02:57:28.200Z,29.70
2018-09-04T02:58:25.193Z,35.90
2018-09-04T02:59:25.148Z,35.50
2018-09-04T03:00:25.091Z,33.80
2018-09-04T03:01:25.041Z,36.90
2018-09-04T03:02:25.154Z,32.50
2018-09-04T03:03:25.065Z,32.90
2018-09-04T03:04:25.174Z,36.60
2018-09-04T03:05:25.065Z,35.60
2018-09-04T03:06:25.036Z,34.00
2018-09-04T03:07:25.004Z,35.30
2018-09-04T03:08:25.031Z,36.80
2018-09-04T03:09:25.005Z,36.00
2018-09-04T03:10:25.001Z,39.20
2018-09-04T03:11:25.005Z,37.20
2018-09-04T03:12:24.946Z,35.10
2018-09-04T03:13:24.971Z,33.70
2018-09-04T03:14:24.937Z,34.10
2018-09-04T03:15:24.896Z,34.00
2018-09-04T03:16:24.948Z,30.60
2018-09-04T03:17:24.932Z,33.70
2018-09-04T03:18:24.917Z,30.50
2018-09-04T03:19:24.908Z,35.40
2018-09-04T03:20:24.843Z,33.60
2018-09-04T03:21:24.838Z,30.80
2018-09-04T03:22:24.886Z,40.30
2018-09-04T03:23:25.919Z,36.10
2018-09-04T03:24:24.848Z,33.50
2018-09-04T03:25:24.887Z,31.80
2018-09-04T03:26:24.794Z,34.70
2018-09-04T03:27:24.793Z,34.50
2018-09-04T03:28:24.832Z,35.90
2018-09-04T03:29:24.768Z,34.70
2018-09-04T03:30:24.745Z,36.10
2018-09-04T03:31:24.776Z,36.50
2018-09-04T03:32:24.766Z,38.80
2018-09-04T03:33:24.736Z,36.70
2018-09-04T03:34:24.851Z,37.20
2018-09-04T03:35:24.681Z,36.20
2018-09-04T03:36:24.670Z,34.90
2018-09-04T03:37:24.689Z,36.30
2018-09-04T03:38:24.642Z,34.70
2018-09-04T03:39:24.729Z,36.90
2018-09-04T03:40:24.657Z,35.60
2018-09-04T03:41:24.614Z,33.50
2018-09-04T03:42:24.609Z,38.50
2018-09-04T03:43:24.589Z,37.30
2018-09-04T03:44:36.143Z,34.30
2018-09-04T03:45:24.600Z,33.60
2018-09-04T03:46:24.676Z,33.90
2018-09-04T03:47:24.557Z,33.70
2018-09-04T03:48:24.562Z,37.30
2018-09-04T03:49:24.604Z,38.00
2018-09-04T03:50:29.267Z,35.90
2018-09-04T03:51:24.542Z,37.20
2018-09-04T03:52:24.649Z,40.30
2018-09-04T03:53:24.528Z,42.00
2018-09-04T03:54:24.488Z,38.50
2018-09-04T03:55:24.472Z,42.90
2018-09-04T03:56:24.471Z,41.50
2018-09-04T03:57:24.431Z,40.30
2018-09-04T03:58:24.464Z,39.30
2018-09-04T03:59:24.439Z,42.90
2018-09-04T04:00:24.462Z,36.90
2018-09-04T04:01:24.388Z,33.00
2018-09-04T04:02:24.415Z,31.80
2018-09-04T04:03:24.399Z,39.20
2018-09-04T04:04:24.417Z,32.30
2018-09-04T04:05:24.351Z,36.30
2018-09-04T04:06:24.357Z,34.10
2018-09-04T04:07:24.384Z,34.70
2018-09-04T04:08:24.335Z,32.80
2018-09-04T04:09:24.301Z,34.40
2018-09-04T04:10:24.404Z,33.80
2018-09-04T04:11:27.310Z,32.60
2018-09-04T04:12:24.292Z,33.50
2018-09-04T04:13:24.291Z,34.00
2018-09-04T04:14:24.346Z,34.00
2018-09-04T04:15:24.234Z,35.30
2018-09-04T04:16:24.281Z,33.00
2018-09-04T04:17:24.210Z,37.00
2018-09-04T04:18:24.263Z,33.90
2018-09-04T04:19:24.178Z,32.60
2018-09-04T04:20:24.159Z,36.70
2018-09-04T04:21:24.211Z,35.00
2018-09-04T04:22:24.237Z,43.10
2018-09-04T04:23:24.186Z,37.70
2018-09-04T04:24:24.162Z,34.10
2018-09-04T04:25:24.113Z,38.60
2018-09-04T04:26:24.110Z,41.40
2018-09-04T04:27:24.188Z,38.40
2018-09-04T04:28:24.151Z,45.40
2018-09-04T04:29:24.042Z,41.20
2018-09-04T04:30:24.075Z,44.90
2018-09-04T04:31:24.062Z,36.30
2018-09-04T04:32:24.024Z,36.40
2018-09-04T04:33:24.068Z,38.60
2018-09-04T04:34:24.076Z,45.80
2018-09-04T04:35:24.071Z,34.20
2018-09-04T04:36:24.015Z,36.00
2018-09-04T04:37:24.081Z,39.60
2018-09-04T04:38:24.022Z,34.80
2018-09-04T04:39:23.971Z,36.20
2018-09-04T04:40:23.955Z,37.40
2018-09-04T04:41:23.944Z,36.20
2018-09-04T04:42:23.955Z,36.50
2018-09-04T04:43:23.917Z,35.40
2018-09-04T04:44:23.942Z,35.30
2018-09-04T04:45:24.014Z,36.70
2018-09-04T04:46:23.922Z,39.50
2018-09-04T04:47:23.926Z,36.70
2018-09-04T04:48:23.972Z,46.10
2018-09-04T04:49:23.861Z,42.50
2018-09-04T04:50:23.858Z,41.90
2018-09-04T04:51:28.659Z,40.10
2018-09-04T04:52:26.865Z,39.80
2018-09-04T04:53:23.778Z,42.10
2018-09-04T04:54:23.804Z,38.50
2018-09-04T04:55:23.818Z,41.20
2018-09-04T04:56:23.804Z,45.70
2018-09-04T04:57:23.811Z,39.70
2018-09-04T04:58:23.788Z,37.10
2018-09-04T04:59:23.823Z,40.40
2018-09-04T05:00:23.836Z,35.10
2018-09-04T05:01:23.715Z,36.50
2018-09-04T05:02:23.759Z,35.10
2018-09-04T05:03:23.777Z,32.20
2018-09-04T05:04:23.683Z,34.00
2018-09-04T05:05:23.724Z,31.70
2018-09-04T05:06:23.670Z,36.00
2018-09-04T05:07:23.636Z,33.10
2018-09-04T05:08:23.658Z,39.10
2018-09-04T05:09:23.714Z,35.60
2018-09-04T05:10:23.648Z,35.90
2018-09-04T05:11:23.674Z,35.60
2018-09-04T05:12:23.593Z,36.30
2018-09-04T05:13:23.596Z,34.70
2018-09-04T05:14:23.612Z,33.50
2018-09-04T05:15:23.600Z,39.30
2018-09-04T05:16:23.567Z,35.70
2018-09-04T05:17:23.557Z,35.40
2018-09-04T05:18:23.563Z,37.10
2018-09-04T05:19:23.536Z,34.70
2018-09-04T05:20:23.510Z,38.80
2018-09-04T05:21:23.555Z,40.00
2018-09-04T05:22:23.481Z,42.50
2018-09-04T05:23:23.494Z,35.20
2018-09-04T05:24:23.495Z,41.00
2018-09-04T05:25:23.451Z,38.00
2018-09-04T05:26:23.464Z,39.40
2018-09-04T05:27:27.282Z,38.70
2018-09-04T05:28:23.486Z,34.50
2018-09-04T05:29:23.451Z,40.70
2018-09-04T05:30:23.396Z,43.80
2018-09-04T05:31:23.420Z,44.30
2018-09-04T05:32:23.360Z,40.70
2018-09-04T05:33:23.456Z,39.30
2018-09-04T05:34:23.334Z,39.10
2018-09-04T05:35:23.351Z,40.00
2018-09-04T05:36:23.349Z,35.30
2018-09-04T05:37:23.369Z,35.20
2018-09-04T05:44:04.761Z,36.50
2018-09-04T05:44:45.499Z,39.40
2018-09-04T05:45:44.077Z,50.50
2018-09-04T05:46:43.998Z,42.90
2018-09-04T05:47:44.262Z,46.40
2018-09-04T05:48:43.779Z,47.70
2018-09-04T05:49:45.024Z,47.40
2018-09-04T05:50:43.885Z,35.60
2018-09-04T05:51:48.562Z,36.90
2018-09-04T05:52:43.854Z,37.60
2018-09-04T05:53:44.912Z,41.80
2018-09-04T05:54:43.730Z,40.50
2018-09-04T05:55:43.774Z,31.10
2018-09-04T05:56:43.785Z,43.60
2018-09-04T05:57:44.138Z,43.80
2018-09-04T05:58:43.734Z,45.80
2018-09-04T05:59:43.694Z,46.90
2018-09-04T06:00:43.669Z,42.00
2018-09-04T06:01:43.646Z,36.20
2018-09-04T06:02:43.734Z,39.50
2018-09-04T06:03:43.701Z,39.40
2018-09-04T06:04:43.650Z,41.30
2018-09-04T06:05:43.675Z,40.90
2018-09-04T06:06:43.587Z,40.30
2018-09-04T06:07:43.570Z,40.00
2018-09-04T06:08:43.606Z,43.80
2018-09-04T06:09:43.554Z,40.80
2018-09-04T06:10:43.599Z,38.90
2018-09-04T06:11:43.548Z,41.10
2018-09-04T06:12:43.555Z,40.70
2018-09-04T06:13:43.602Z,38.40
2018-09-04T06:14:43.746Z,39.30
2018-09-04T06:15:43.791Z,38.90
2018-09-04T06:16:43.534Z,42.00
2018-09-04T06:17:43.492Z,39.30
2018-09-04T06:18:43.469Z,40.30
2018-09-04T06:19:43.499Z,37.00
2018-09-04T06:20:43.516Z,35.10
2018-09-04T06:24:23.117Z,37.30
2018-09-04T06:25:01.231Z,41.80
2018-09-04T06:26:01.253Z,40.80
2018-09-04T06:27:01.170Z,38.70
2018-09-04T06:28:01.174Z,40.50
2018-09-04T06:29:01.183Z,40.40
2018-09-04T06:30:01.160Z,39.70
2018-09-04T06:31:04.461Z,41.40
2018-09-04T06:32:02.218Z,42.20
2018-09-04T06:33:01.185Z,41.10
2018-09-04T06:34:01.139Z,41.30
2018-09-04T06:35:01.110Z,40.10
2018-09-04T06:36:01.105Z,41.00
2018-09-04T06:37:01.136Z,40.70
2018-09-04T06:38:01.105Z,39.50
2018-09-04T06:39:01.070Z,38.00
2018-09-04T06:40:01.047Z,41.70
2018-09-04T06:41:01.135Z,39.10
2018-09-04T06:42:01.014Z,42.00
2018-09-04T06:43:01.031Z,38.80
2018-09-04T06:44:01.158Z,38.40
2018-09-04T06:45:01.284Z,40.80
2018-09-04T06:46:01.037Z,38.30
2018-09-04T06:47:00.957Z,37.80
2018-09-04T06:48:00.931Z,41.10
2018-09-04T06:49:01.070Z,44.40
2018-09-04T06:50:01.000Z,40.50
2018-09-04T06:51:00.912Z,39.40
2018-09-04T06:52:00.900Z,41.20
2018-09-04T06:53:05.737Z,38.60
2018-09-04T06:54:00.911Z,39.40
2018-09-04T06:55:00.855Z,41.20
2018-09-04T06:56:00.882Z,41.80
2018-09-04T06:57:00.883Z,41.10
2018-09-04T06:58:01.023Z,44.20
2018-09-04T06:59:02.550Z,41.90
2018-09-04T07:00:00.940Z,38.10
2018-09-04T07:01:00.838Z,43.40
2018-09-04T07:02:00.827Z,40.60
2018-09-04T07:03:00.800Z,38.80
2018-09-04T07:04:00.767Z,40.40
2018-09-04T07:05:00.837Z,42.50
2018-09-04T07:06:00.877Z,39.40
2018-09-04T07:07:00.880Z,42.20
2018-09-04T07:08:02.004Z,41.10
2018-09-04T07:09:00.732Z,47.90
2018-09-04T07:10:03.137Z,46.50
2018-09-04T07:11:00.690Z,46.60
2018-09-04T07:12:00.751Z,42.90
2018-09-04T07:13:01.423Z,45.60
2018-09-04T07:14:00.710Z,26.00
2018-09-04T07:16:01.989Z,29.30
2018-09-04T07:17:01.782Z,32.90
2018-09-04T07:20:03.727Z,35.70
2018-09-04T07:23:23.493Z,34.60
2018-09-04T07:28:37.758Z,29.50
2018-09-04T07:29:37.525Z,31.10
2018-09-04T07:30:53.390Z,33.70
2018-09-04T07:33:30.874Z,29.10
2018-09-04T07:34:11.795Z,32.80
2018-09-04T07:35:11.214Z,33.40
2018-09-04T07:36:13.310Z,33.50
2018-09-04T07:37:10.316Z,31.60
2018-09-04T07:38:18.664Z,33.10
2018-09-04T07:39:10.233Z,40.80
2018-09-04T07:40:10.192Z,36.20
2018-09-04T07:41:10.224Z,40.70
2018-09-04T07:42:10.205Z,33.60
2018-09-04T07:43:10.148Z,40.90
2018-09-04T07:44:10.149Z,39.80
2018-09-04T07:45:13.118Z,34.80
2018-09-04T07:46:10.160Z,40.60
2018-09-04T07:47:10.645Z,34.40
2018-09-04T07:48:10.219Z,34.30
2018-09-04T07:50:19.119Z,28.40
2018-09-04T07:51:19.406Z,42.00
2018-09-04T07:52:19.131Z,39.80
2018-09-04T07:53:18.942Z,41.90
2018-09-04T07:54:23.672Z,39.10
2018-09-04T07:55:19.313Z,43.00
2018-09-04T07:57:28.714Z,40.10
2018-09-04T07:58:28.165Z,45.20
2018-09-04T07:59:28.484Z,51.80
2018-09-04T08:00:27.747Z,50.60
2018-09-04T08:01:27.776Z,46.50
2018-09-04T08:02:27.843Z,49.70
2018-09-04T08:03:27.743Z,44.20
2018-09-04T08:04:27.788Z,44.20
2018-09-04T08:05:27.825Z,42.80
2018-09-04T08:06:27.760Z,40.80
2018-09-04T08:07:27.761Z,40.00
2018-09-04T08:08:27.664Z,37.30
2018-09-04T08:09:29.765Z,39.40
2018-09-04T08:10:28.325Z,37.00
2018-09-04T08:16:39.412Z,31.50
2018-09-04T08:17:35.792Z,33.40
2018-09-04T08:18:35.467Z,31.50
2018-09-04T08:19:35.344Z,40.10
2018-09-04T08:20:37.019Z,36.10
2018-09-04T08:30:01.988Z,26.60
2018-09-04T08:31:01.855Z,25.00
2018-09-04T08:32:05.763Z,31.20
2018-09-04T08:33:01.702Z,26.50
2018-09-04T08:34:01.674Z,30.10
2018-09-04T08:35:02.225Z,28.70
2018-09-04T08:36:01.632Z,31.10
2018-09-04T08:37:02.314Z,28.80
2018-09-04T08:38:01.734Z,31.30
2018-09-04T08:41:52.306Z,28.80
2018-09-04T08:42:49.674Z,28.90
2018-09-04T08:43:49.794Z,27.00
2018-09-04T08:44:49.656Z,28.60
2018-09-04T08:47:00.149Z,27.20
2018-09-04T08:48:00.068Z,25.70
2018-09-04T08:49:02.695Z,29.50
2018-09-04T08:49:59.904Z,29.70
2018-09-04T08:50:59.940Z,27.10
2018-09-04T08:51:59.830Z,33.70
2018-09-04T08:52:59.853Z,27.10
2018-09-04T08:53:59.853Z,29.20
2018-09-04T08:55:04.659Z,27.40
2018-09-04T08:56:01.270Z,24.00
2018-09-04T08:56:59.794Z,27.10
2018-09-04T08:58:02.874Z,23.60
2018-09-04T08:58:59.738Z,27.20
2018-09-04T08:59:59.837Z,24.80
2018-09-04T09:00:59.716Z,25.10
2018-09-04T09:01:59.742Z,23.30
2018-09-04T09:02:59.787Z,23.00
2018-09-04T09:03:59.765Z,28.00
2018-09-04T09:04:59.720Z,27.30
2018-09-04T09:05:59.822Z,26.60
2018-09-04T09:06:59.718Z,27.40
2018-09-04T09:07:59.757Z,28.40
2018-09-04T09:09:13.685Z,27.50
